sensor_id;sensor_type;location;lat;lon;timestamp;pressure;altitude;pressure_sealevel;temperature;humidity
26823;BME280;14852;51.910;8.878;2023-01-26T00:01:13;100605.97;;;1.74;62.04
26823;BME280;14852;51.910;8.878;2023-01-26T00:03:40;100605.16;;;1.69;62.29
26823;BME280;14852;51.910;8.878;2023-01-26T00:06:09;100600.03;;;1.66;62.36
26823;BME280;14852;51.910;8.878;2023-01-26T00:08:39;100600.03;;;1.63;62.34
26823;BME280;14852;51.910;8.878;2023-01-26T00:11:08;100595.78;;;1.59;62.19
26823;BME280;14852;51.910;8.878;2023-01-26T00:13:35;100593.25;;;1.59;62.35
26823;BME280;14852;51.910;8.878;2023-01-26T00:16:01;100588.09;;;1.64;62.43
26823;BME280;14852;51.910;8.878;2023-01-26T00:18:28;100587.22;;;1.68;62.15
26823;BME280;14852;51.910;8.878;2023-01-26T00:20:58;100588.09;;;1.70;62.00
26823;BME280;14852;51.910;8.878;2023-01-26T00:23:24;100582.97;;;1.71;62.11
26823;BME280;14852;51.910;8.878;2023-01-26T00:25:50;100589.75;;;1.75;62.11
26823;BME280;14852;51.910;8.878;2023-01-26T00:28:16;100590.59;;;1.74;62.17
26823;BME280;14852;51.910;8.878;2023-01-26T00:30:42;100588.03;;;1.74;61.85
26823;BME280;14852;51.910;8.878;2023-01-26T00:33:07;100587.19;;;1.74;62.05
26823;BME280;14852;51.910;8.878;2023-01-26T00:35:33;100587.22;;;1.72;61.89
26823;BME280;14852;51.910;8.878;2023-01-26T00:38:01;100581.22;;;1.73;61.84
26823;BME280;14852;51.910;8.878;2023-01-26T00:40:26;100579.50;;;1.77;62.10
26823;BME280;14852;51.910;8.878;2023-01-26T00:42:52;100571.81;;;1.77;61.85
26823;BME280;14852;51.910;8.878;2023-01-26T00:45:20;100569.25;;;1.74;61.82
26823;BME280;14852;51.910;8.878;2023-01-26T00:47:46;100565.03;;;1.71;62.21
26823;BME280;14852;51.910;8.878;2023-01-26T00:50:12;100561.59;;;1.69;61.95
26823;BME280;14852;51.910;8.878;2023-01-26T00:52:38;100550.50;;;1.67;62.27
26823;BME280;14852;51.910;8.878;2023-01-26T00:55:04;100552.22;;;1.67;62.21
26823;BME280;14852;51.910;8.878;2023-01-26T00:57:30;100550.50;;;1.69;62.20
26823;BME280;14852;51.910;8.878;2023-01-26T00:59:56;100547.94;;;1.72;62.15
26823;BME280;14852;51.910;8.878;2023-01-26T01:02:23;100553.03;;;1.73;62.07
26823;BME280;14852;51.910;8.878;2023-01-26T01:04:49;100550.47;;;1.76;61.97
26823;BME280;14852;51.910;8.878;2023-01-26T01:07:15;100547.91;;;1.78;62.15
26823;BME280;14852;51.910;8.878;2023-01-26T01:09:41;100543.63;;;1.81;61.75
26823;BME280;14852;51.910;8.878;2023-01-26T01:12:07;100534.22;;;1.84;62.01
26823;BME280;14852;51.910;8.878;2023-01-26T01:14:33;100538.47;;;1.86;61.92
26823;BME280;14852;51.910;8.878;2023-01-26T01:16:58;100543.59;;;1.88;61.94
26823;BME280;14852;51.910;8.878;2023-01-26T01:19:24;100531.63;;;1.90;61.97
26823;BME280;14852;51.910;8.878;2023-01-26T01:21:50;100529.06;;;1.93;61.59
26823;BME280;14852;51.910;8.878;2023-01-26T01:24:16;100534.19;;;1.96;61.56
26823;BME280;14852;51.910;8.878;2023-01-26T01:26:41;100532.44;;;1.99;61.61
26823;BME280;14852;51.910;8.878;2023-01-26T01:29:12;100531.56;;;2.03;61.67
26823;BME280;14852;51.910;8.878;2023-01-26T01:31:38;100522.16;;;2.05;61.40
26823;BME280;14852;51.910;8.878;2023-01-26T01:34:03;100523.88;;;2.05;61.50
26823;BME280;14852;51.910;8.878;2023-01-26T01:36:29;100520.44;;;2.06;61.66
26823;BME280;14852;51.910;8.878;2023-01-26T01:38:58;100520.44;;;2.06;61.55
26823;BME280;14852;51.910;8.878;2023-01-26T01:41:25;100523.00;;;2.06;61.48
26823;BME280;14852;51.910;8.878;2023-01-26T01:44:12;100512.72;;;2.09;61.57
26823;BME280;14852;51.910;8.878;2023-01-26T01:46:44;100511.84;;;2.08;61.60
26823;BME280;14852;51.910;8.878;2023-01-26T01:49:39;100510.16;;;2.10;61.42
26823;BME280;14852;51.910;8.878;2023-01-26T01:52:29;100508.44;;;2.09;61.43
26823;BME280;14852;51.910;8.878;2023-01-26T01:55:07;100504.16;;;2.08;61.55
26823;BME280;14852;51.910;8.878;2023-01-26T01:57:55;100503.38;;;2.05;61.55
26823;BME280;14852;51.910;8.878;2023-01-26T02:00:24;100494.88;;;1.92;61.73
26823;BME280;14852;51.910;8.878;2023-01-26T02:03:06;100494.91;;;1.86;61.90
26823;BME280;14852;51.910;8.878;2023-01-26T02:06:02;100482.13;;;1.80;61.70
26823;BME280;14852;51.910;8.878;2023-01-26T02:08:40;100483.00;;;1.77;61.81
26823;BME280;14852;51.910;8.878;2023-01-26T02:11:18;100478.78;;;1.70;61.78
26823;BME280;14852;51.910;8.878;2023-01-26T02:13:47;100471.94;;;1.68;61.87
26823;BME280;14852;51.910;8.878;2023-01-26T02:16:15;100474.50;;;1.68;61.84
26823;BME280;14852;51.910;8.878;2023-01-26T02:18:42;100465.97;;;1.67;61.70
26823;BME280;14852;51.910;8.878;2023-01-26T02:21:10;100459.13;;;1.71;61.90
26823;BME280;14852;51.910;8.878;2023-01-26T02:24:13;100465.94;;;1.75;61.82
26823;BME280;14852;51.910;8.878;2023-01-26T02:26:41;100465.94;;;1.75;62.03
26823;BME280;14852;51.910;8.878;2023-01-26T02:29:09;100461.66;;;1.74;61.77
26823;BME280;14852;51.910;8.878;2023-01-26T02:31:40;100451.44;;;1.71;61.89
26823;BME280;14852;51.910;8.878;2023-01-26T02:34:06;100450.59;;;1.70;61.59
26823;BME280;14852;51.910;8.878;2023-01-26T02:36:33;100458.28;;;1.72;61.86
26823;BME280;14852;51.910;8.878;2023-01-26T02:42:12;100457.38;;;1.76;61.74
26823;BME280;14852;51.910;8.878;2023-01-26T02:44:57;100459.94;;;1.84;61.80
26823;BME280;14852;51.910;8.878;2023-01-26T02:47:23;100447.91;;;1.92;61.61
26823;BME280;14852;51.910;8.878;2023-01-26T02:49:48;100452.13;;;1.99;61.71
26823;BME280;14852;51.910;8.878;2023-01-26T02:52:22;100448.69;;;2.04;61.30
26823;BME280;14852;51.910;8.878;2023-01-26T02:55:07;100459.75;;;2.08;61.28
26823;BME280;14852;51.910;8.878;2023-01-26T02:57:59;100457.16;;;2.11;61.54
26823;BME280;14852;51.910;8.878;2023-01-26T03:00:33;100461.41;;;2.16;61.51
26823;BME280;14852;51.910;8.878;2023-01-26T03:03:11;100457.09;;;2.20;61.45
26823;BME280;14852;51.910;8.878;2023-01-26T03:05:37;100461.34;;;2.23;61.63
26823;BME280;14852;51.910;8.878;2023-01-26T03:08:03;100458.78;;;2.26;61.58
26823;BME280;14852;51.910;8.878;2023-01-26T03:10:34;100447.66;;;2.27;61.40
26823;BME280;14852;51.910;8.878;2023-01-26T03:13:01;100458.75;;;2.29;61.40
26823;BME280;14852;51.910;8.878;2023-01-26T03:15:27;100451.03;;;2.32;61.71
26823;BME280;14852;51.910;8.878;2023-01-26T03:18:15;100453.56;;;2.35;61.52
26823;BME280;14852;51.910;8.878;2023-01-26T03:21:02;100456.19;;;2.30;61.53
26823;BME280;14852;51.910;8.878;2023-01-26T03:23:47;100458.75;;;2.30;61.71
26823;BME280;14852;51.910;8.878;2023-01-26T03:26:32;100456.22;;;2.27;61.93
26823;BME280;14852;51.910;8.878;2023-01-26T03:29:18;100453.66;;;2.26;61.87
26823;BME280;14852;51.910;8.878;2023-01-26T03:31:44;100452.78;;;2.27;61.71
26823;BME280;14852;51.910;8.878;2023-01-26T03:34:10;100459.63;;;2.28;61.89
26823;BME280;14852;51.910;8.878;2023-01-26T03:36:40;100452.78;;;2.28;61.64
26823;BME280;14852;51.910;8.878;2023-01-26T03:39:11;100458.78;;;2.27;61.72
26823;BME280;14852;51.910;8.878;2023-01-26T03:41:58;100452.78;;;2.25;61.91
26823;BME280;14852;51.910;8.878;2023-01-26T03:44:42;100455.38;;;2.21;61.75
26823;BME280;14852;51.910;8.878;2023-01-26T03:47:27;100443.47;;;2.16;61.93
26823;BME280;14852;51.910;8.878;2023-01-26T03:50:11;100431.53;;;2.14;61.88
26823;BME280;14852;51.910;8.878;2023-01-26T03:52:56;100434.06;;;2.15;61.76
26823;BME280;14852;51.910;8.878;2023-01-26T03:55:40;100426.38;;;2.17;62.17
26823;BME280;14852;51.910;8.878;2023-01-26T03:58:25;100428.97;;;2.14;61.89
26823;BME280;14852;51.910;8.878;2023-01-26T04:00:56;100430.72;;;2.06;62.00
26823;BME280;14852;51.910;8.878;2023-01-26T04:03:22;100451.25;;;2.01;61.92
26823;BME280;14852;51.910;8.878;2023-01-26T04:06:06;100443.56;;;2.06;62.14
26823;BME280;14852;51.910;8.878;2023-01-26T04:08:51;100433.28;;;2.07;62.22
26823;BME280;14852;51.910;8.878;2023-01-26T04:11:17;100434.94;;;2.11;62.05
26823;BME280;14852;51.910;8.878;2023-01-26T04:13:43;100432.38;;;2.13;61.71
26823;BME280;14852;51.910;8.878;2023-01-26T04:16:30;100437.50;;;2.16;61.87
26823;BME280;14852;51.910;8.878;2023-01-26T04:19:15;100446.03;;;2.16;61.89
26823;BME280;14852;51.910;8.878;2023-01-26T04:22:00;100440.06;;;2.16;61.90
26823;BME280;14852;51.910;8.878;2023-01-26T04:24:27;100427.25;;;2.14;61.94
26823;BME280;14852;51.910;8.878;2023-01-26T04:26:55;100429.81;;;2.14;62.03
26823;BME280;14852;51.910;8.878;2023-01-26T04:29:25;100428.09;;;2.15;61.95
26823;BME280;14852;51.910;8.878;2023-01-26T04:31:51;100428.09;;;2.16;61.93
26823;BME280;14852;51.910;8.878;2023-01-26T04:34:19;100417.00;;;2.14;62.08
26823;BME280;14852;51.910;8.878;2023-01-26T04:36:45;100410.16;;;2.13;61.99
26823;BME280;14852;51.910;8.878;2023-01-26T04:39:12;100414.44;;;2.11;62.26
26823;BME280;14852;51.910;8.878;2023-01-26T04:41:43;100416.16;;;2.11;62.14
26823;BME280;14852;51.910;8.878;2023-01-26T04:44:12;100409.31;;;2.11;62.09
26823;BME280;14852;51.910;8.878;2023-01-26T04:46:38;100408.44;;;2.14;62.07
26823;BME280;14852;51.910;8.878;2023-01-26T04:49:04;100404.16;;;2.16;62.07
26823;BME280;14852;51.910;8.878;2023-01-26T04:51:32;100409.28;;;2.16;61.87
26823;BME280;14852;51.910;8.878;2023-01-26T04:53:57;100411.00;;;2.18;61.94
26823;BME280;14852;51.910;8.878;2023-01-26T04:56:30;100405.81;;;2.22;61.90
26823;BME280;14852;51.910;8.878;2023-01-26T04:58:59;100402.38;;;2.24;61.87
26823;BME280;14852;51.910;8.878;2023-01-26T05:01:26;100407.50;;;2.24;61.87
26823;BME280;14852;51.910;8.878;2023-01-26T05:03:52;100410.91;;;2.26;61.96
26823;BME280;14852;51.910;8.878;2023-01-26T05:06:19;100404.06;;;2.27;61.76
26823;BME280;14852;51.910;8.878;2023-01-26T05:08:47;100407.50;;;2.26;61.83
26823;BME280;14852;51.910;8.878;2023-01-26T05:11:13;100408.38;;;2.22;61.99
26823;BME280;14852;51.910;8.878;2023-01-26T05:13:45;100407.56;;;2.18;62.12
26823;BME280;14852;51.910;8.878;2023-01-26T05:16:21;100411.00;;;2.14;62.08
26823;BME280;14852;51.910;8.878;2023-01-26T05:18:50;100413.59;;;2.12;62.09
26823;BME280;14852;51.910;8.878;2023-01-26T05:21:26;100418.72;;;2.12;62.05
26823;BME280;14852;51.910;8.878;2023-01-26T05:23:53;100415.28;;;2.12;62.03
26823;BME280;14852;51.910;8.878;2023-01-26T05:26:38;100423.00;;;2.10;62.02
26823;BME280;14852;51.910;8.878;2023-01-26T05:29:08;100430.69;;;2.10;62.07
26823;BME280;14852;51.910;8.878;2023-01-26T05:31:33;100432.38;;;2.11;61.97
26823;BME280;14852;51.910;8.878;2023-01-26T05:33:59;100432.38;;;2.13;62.09
26823;BME280;14852;51.910;8.878;2023-01-26T05:36:25;100437.53;;;2.10;61.78
26823;BME280;14852;51.910;8.878;2023-01-26T05:38:51;100440.09;;;2.08;62.17
26823;BME280;14852;51.910;8.878;2023-01-26T05:41:21;100434.13;;;2.08;61.98
26823;BME280;14852;51.910;8.878;2023-01-26T05:44:02;100429.88;;;2.05;61.96
26823;BME280;14852;51.910;8.878;2023-01-26T05:46:39;100423.03;;;2.06;61.94
26823;BME280;14852;51.910;8.878;2023-01-26T05:49:05;100417.91;;;2.07;61.95
26823;BME280;14852;51.910;8.878;2023-01-26T05:51:31;100418.72;;;2.11;61.96
26823;BME280;14852;51.910;8.878;2023-01-26T05:53:57;100423.84;;;2.14;61.90
26823;BME280;14852;51.910;8.878;2023-01-26T05:56:23;100427.25;;;2.16;61.89
26823;BME280;14852;51.910;8.878;2023-01-26T05:58:54;100430.59;;;2.19;62.04
26823;BME280;14852;51.910;8.878;2023-01-26T06:01:20;100426.31;;;2.22;61.89
26823;BME280;14852;51.910;8.878;2023-01-26T06:03:53;100428.03;;;2.24;61.72
26823;BME280;14852;51.910;8.878;2023-01-26T06:06:19;100428.00;;;2.27;61.85
26823;BME280;14852;51.910;8.878;2023-01-26T06:08:57;100422.03;;;2.27;61.58
26823;BME280;14852;51.910;8.878;2023-01-26T06:11:32;100432.28;;;2.28;61.82
26823;BME280;14852;51.910;8.878;2023-01-26T06:14:15;100430.56;;;2.29;61.71
26823;BME280;14852;51.910;8.878;2023-01-26T06:16:41;100431.41;;;2.31;61.73
26823;BME280;14852;51.910;8.878;2023-01-26T06:19:09;100432.25;;;2.30;61.82
26823;BME280;14852;51.910;8.878;2023-01-26T06:21:36;100431.41;;;2.29;62.07
26823;BME280;14852;51.910;8.878;2023-01-26T06:24:02;100432.25;;;2.30;61.76
26823;BME280;14852;51.910;8.878;2023-01-26T06:26:28;100440.78;;;2.32;61.79
26823;BME280;14852;51.910;8.878;2023-01-26T06:28:56;100432.22;;;2.33;61.86
26823;BME280;14852;51.910;8.878;2023-01-26T06:31:25;100439.91;;;2.31;61.92
26823;BME280;14852;51.910;8.878;2023-01-26T06:33:54;100435.63;;;2.33;61.80
26823;BME280;14852;51.910;8.878;2023-01-26T06:36:20;100433.91;;;2.34;62.01
26823;BME280;14852;51.910;8.878;2023-01-26T06:38:50;100435.63;;;2.35;61.85
26823;BME280;14852;51.910;8.878;2023-01-26T06:41:19;100430.50;;;2.36;62.03
26823;BME280;14852;51.910;8.878;2023-01-26T06:43:47;100430.47;;;2.39;62.10
26823;BME280;14852;51.910;8.878;2023-01-26T06:46:15;100431.28;;;2.43;61.89
26823;BME280;14852;51.910;8.878;2023-01-26T06:48:42;100434.69;;;2.45;61.91
26823;BME280;14852;51.910;8.878;2023-01-26T06:53:52;100438.06;;;2.48;61.94
26823;BME280;14852;51.910;8.878;2023-01-26T06:56:50;100438.09;;;2.45;61.77
26823;BME280;14852;51.910;8.878;2023-01-26T06:59:27;100429.56;;;2.45;61.91
26823;BME280;14852;51.910;8.878;2023-01-26T07:02:20;100432.97;;;2.45;61.73
26823;BME280;14852;51.910;8.878;2023-01-26T07:04:47;100432.13;;;2.43;61.71
26823;BME280;14852;51.910;8.878;2023-01-26T07:07:13;100435.53;;;2.42;61.93
26823;BME280;14852;51.910;8.878;2023-01-26T07:09:39;100433.03;;;2.39;61.89
26823;BME280;14852;51.910;8.878;2023-01-26T07:12:05;100439.03;;;2.38;62.04
26823;BME280;14852;51.910;8.878;2023-01-26T07:14:31;100444.16;;;2.40;61.89
26823;BME280;14852;51.910;8.878;2023-01-26T07:16:57;100436.44;;;2.40;61.91
26823;BME280;14852;51.910;8.878;2023-01-26T07:19:23;100432.97;;;2.42;61.79
26823;BME280;14852;51.910;8.878;2023-01-26T07:21:49;100436.41;;;2.44;61.81
26823;BME280;14852;51.910;8.878;2023-01-26T07:24:14;100426.97;;;2.46;61.80
26823;BME280;14852;51.910;8.878;2023-01-26T07:26:40;100436.38;;;2.49;61.69
26823;BME280;14852;51.910;8.878;2023-01-26T07:29:06;100439.78;;;2.51;61.75
26823;BME280;14852;51.910;8.878;2023-01-26T07:31:32;100433.78;;;2.50;61.66
26823;BME280;14852;51.910;8.878;2023-01-26T07:33:57;100432.06;;;2.52;61.78
26823;BME280;14852;51.910;8.878;2023-01-26T07:36:23;100429.44;;;2.57;61.72
26823;BME280;14852;51.910;8.878;2023-01-26T07:38:49;100429.44;;;2.59;61.76
26823;BME280;14852;51.910;8.878;2023-01-26T07:41:14;100426.84;;;2.60;61.96
26823;BME280;14852;51.910;8.878;2023-01-26T07:43:40;100431.97;;;2.63;61.57
26823;BME280;14852;51.910;8.878;2023-01-26T07:46:09;100430.19;;;2.68;61.83
26823;BME280;14852;51.910;8.878;2023-01-26T07:48:35;100430.16;;;2.71;61.78
26823;BME280;14852;51.910;8.878;2023-01-26T07:51:02;100424.16;;;2.74;61.64
26823;BME280;14852;51.910;8.878;2023-01-26T07:53:30;100430.09;;;2.77;61.77
26823;BME280;14852;51.910;8.878;2023-01-26T07:56:10;100422.38;;;2.80;61.65
26823;BME280;14852;51.910;8.878;2023-01-26T07:58:36;100422.38;;;2.82;61.35
26823;BME280;14852;51.910;8.878;2023-01-26T08:01:11;100437.66;;;2.89;61.40
26823;BME280;14852;51.910;8.878;2023-01-26T08:03:37;100441.06;;;2.91;61.58
26823;BME280;14852;51.910;8.878;2023-01-26T08:06:04;100443.59;;;2.96;61.40
26823;BME280;14852;51.910;8.878;2023-01-26T08:08:30;100432.41;;;3.00;61.29
26823;BME280;14852;51.910;8.878;2023-01-26T08:10:57;100445.22;;;3.03;61.38
26823;BME280;14852;51.910;8.878;2023-01-26T08:13:26;100452.91;;;3.08;61.33
26823;BME280;14852;51.910;8.878;2023-01-26T08:15:52;100451.97;;;3.12;61.34
26823;BME280;14852;51.910;8.878;2023-01-26T08:18:18;100443.47;;;3.08;61.05
26823;BME280;14852;51.910;8.878;2023-01-26T08:20:54;100447.75;;;3.08;61.35
26823;BME280;14852;51.910;8.878;2023-01-26T08:23:20;100447.78;;;3.06;61.32
26823;BME280;14852;51.910;8.878;2023-01-26T08:25:46;100450.31;;;3.09;61.46
26823;BME280;14852;51.910;8.878;2023-01-26T08:28:12;100456.28;;;3.11;61.55
26823;BME280;14852;51.910;8.878;2023-01-26T08:30:39;100451.16;;;3.10;61.26
26823;BME280;14852;51.910;8.878;2023-01-26T08:33:05;100455.44;;;3.09;61.47
26823;BME280;14852;51.910;8.878;2023-01-26T08:35:32;100447.69;;;3.12;61.34
26823;BME280;14852;51.910;8.878;2023-01-26T08:37:58;100453.72;;;3.11;61.37
26823;BME280;14852;51.910;8.878;2023-01-26T08:40:24;100452.03;;;3.07;61.32
26823;BME280;14852;51.910;8.878;2023-01-26T08:42:51;100454.63;;;3.07;61.42
26823;BME280;14852;51.910;8.878;2023-01-26T08:45:17;100451.19;;;3.08;61.56
26823;BME280;14852;51.910;8.878;2023-01-26T08:47:43;100454.59;;;3.10;61.35
26823;BME280;14852;51.910;8.878;2023-01-26T08:50:10;100454.53;;;3.13;61.30
26823;BME280;14852;51.910;8.878;2023-01-26T08:52:36;100449.41;;;3.12;61.60
26823;BME280;14852;51.910;8.878;2023-01-26T08:55:02;100453.72;;;3.11;61.47
26823;BME280;14852;51.910;8.878;2023-01-26T08:57:29;100446.03;;;3.11;61.35
26823;BME280;14852;51.910;8.878;2023-01-26T08:59:55;100451.13;;;3.13;61.31
26823;BME280;14852;51.910;8.878;2023-01-26T09:02:20;100447.66;;;3.17;61.40
26823;BME280;14852;51.910;8.878;2023-01-26T09:04:46;100454.47;;;3.21;61.62
26823;BME280;14852;51.910;8.878;2023-01-26T09:07:12;100459.59;;;3.22;61.31
26823;BME280;14852;51.910;8.878;2023-01-26T09:09:38;100459.53;;;3.25;61.25
26823;BME280;14852;51.910;8.878;2023-01-26T09:12:04;100456.09;;;3.28;61.34
26823;BME280;14852;51.910;8.878;2023-01-26T09:14:29;100452.63;;;3.31;61.44
26823;BME280;14852;51.910;8.878;2023-01-26T09:16:55;100444.91;;;3.32;61.28
26823;BME280;14852;51.910;8.878;2023-01-26T09:19:21;100444.00;;;3.35;61.44
26823;BME280;14852;51.910;8.878;2023-01-26T09:21:52;100453.41;;;3.37;61.25
26823;BME280;14852;51.910;8.878;2023-01-26T09:24:21;100449.97;;;3.38;61.30
26823;BME280;14852;51.910;8.878;2023-01-26T09:26:47;100449.09;;;3.41;61.37
26823;BME280;14852;51.910;8.878;2023-01-26T09:29:14;100449.91;;;3.44;61.36
26823;BME280;14852;51.910;8.878;2023-01-26T09:31:40;100460.09;;;3.49;61.30
26823;BME280;14852;51.910;8.878;2023-01-26T09:34:05;100460.97;;;3.49;61.38
26823;BME280;14852;51.910;8.878;2023-01-26T09:36:31;100464.38;;;3.50;61.23
26823;BME280;14852;51.910;8.878;2023-01-26T09:38:58;100471.25;;;3.49;61.21
26823;BME280;14852;51.910;8.878;2023-01-26T09:48:08;100474.66;;;3.50;61.27
26823;BME280;14852;51.910;8.878;2023-01-26T09:50:56;100459.25;;;3.50;61.41
26823;BME280;14852;51.910;8.878;2023-01-26T09:53:44;100465.19;;;3.53;61.34
26823;BME280;14852;51.910;8.878;2023-01-26T09:56:19;100463.47;;;3.57;61.35
26823;BME280;14852;51.910;8.878;2023-01-26T09:59:01;100464.25;;;3.60;61.35
26823;BME280;14852;51.910;8.878;2023-01-26T10:04:12;100456.50;;;3.63;61.23
26823;BME280;14852;51.910;8.878;2023-01-26T10:06:42;100458.19;;;3.66;61.43
26823;BME280;14852;51.910;8.878;2023-01-26T10:09:27;100453.03;;;3.69;61.29
26823;BME280;14852;51.910;8.878;2023-01-26T10:12:29;100457.19;;;3.78;61.43
26823;BME280;14852;51.910;8.878;2023-01-26T10:17:46;100440.88;;;3.79;61.42
26823;BME280;14852;51.910;8.878;2023-01-26T10:20:41;100440.81;;;3.83;61.42
26823;BME280;14852;51.910;8.878;2023-01-26T10:23:22;100444.25;;;3.82;61.43
26823;BME280;14852;51.910;8.878;2023-01-26T10:25:50;100437.38;;;3.84;61.47
26823;BME280;14852;51.910;8.878;2023-01-26T10:28:32;100445.94;;;3.85;61.28
26823;BME280;14852;51.910;8.878;2023-01-26T10:31:00;100437.38;;;3.83;61.54
26823;BME280;14852;51.910;8.878;2023-01-26T10:33:32;100435.69;;;3.82;61.39
26823;BME280;14852;51.910;8.878;2023-01-26T10:36:05;100429.75;;;3.80;61.39
26823;BME280;14852;51.910;8.878;2023-01-26T10:41:06;100425.38;;;3.85;61.39
26823;BME280;14852;51.910;8.878;2023-01-26T10:44:02;100428.72;;;3.91;61.46
26823;BME280;14852;51.910;8.878;2023-01-26T10:46:37;100423.56;;;3.91;61.49
26823;BME280;14852;51.910;8.878;2023-01-26T10:51:45;100420.06;;;3.95;61.52
26823;BME280;14852;51.910;8.878;2023-01-26T10:54:26;100421.72;;;3.99;61.58
26823;BME280;14852;51.910;8.878;2023-01-26T10:56:56;100414.00;;;4.01;61.37
26823;BME280;14852;51.910;8.878;2023-01-26T10:59:30;100412.19;;;4.05;61.35
26823;BME280;14852;51.910;8.878;2023-01-26T11:04:37;100410.38;;;4.14;61.37
26823;BME280;14852;51.910;8.878;2023-01-26T11:07:25;100412.78;;;4.23;61.11
26823;BME280;14852;51.910;8.878;2023-01-26T11:09:52;100405.06;;;4.25;61.24
26823;BME280;14852;51.910;8.878;2023-01-26T11:12:20;100391.19;;;4.32;61.00
26823;BME280;14852;51.910;8.878;2023-01-26T11:15:04;100393.59;;;4.43;61.25
26823;BME280;14852;51.910;8.878;2023-01-26T11:17:59;100391.66;;;4.55;60.86
26823;BME280;14852;51.910;8.878;2023-01-26T11:21:11;100387.22;;;4.62;60.96
26823;BME280;14852;51.910;8.878;2023-01-26T11:26:52;100374.34;;;4.63;60.79
26823;BME280;14852;51.910;8.878;2023-01-26T11:32:45;100379.34;;;4.72;60.98
26823;BME280;14852;51.910;8.878;2023-01-26T11:35:51;100368.88;;;4.82;60.82
26823;BME280;14852;51.910;8.878;2023-01-26T11:38:39;100375.69;;;4.84;60.76
26823;BME280;14852;51.910;8.878;2023-01-26T11:47:33;100372.34;;;4.79;60.75
26823;BME280;14852;51.910;8.878;2023-01-26T11:50:25;100363.03;;;4.72;61.18
26823;BME280;14852;51.910;8.878;2023-01-26T11:58:48;100360.56;;;4.66;61.46
26823;BME280;14852;51.910;8.878;2023-01-26T12:01:27;100359.66;;;4.68;61.43
26823;BME280;14852;51.910;8.878;2023-01-26T12:03:55;100366.53;;;4.68;61.21
26823;BME280;14852;51.910;8.878;2023-01-26T12:06:42;100358.81;;;4.68;61.24
26823;BME280;14852;51.910;8.878;2023-01-26T12:09:25;100361.41;;;4.68;61.31
26823;BME280;14852;51.910;8.878;2023-01-26T12:12:52;100364.78;;;4.71;61.21
26823;BME280;14852;51.910;8.878;2023-01-26T12:15:30;100364.81;;;4.68;61.26
26823;BME280;14852;51.910;8.878;2023-01-26T12:18:04;100358.88;;;4.65;61.14
26823;BME280;14852;51.910;8.878;2023-01-26T12:21:09;100361.41;;;4.68;61.50
26823;BME280;14852;51.910;8.878;2023-01-26T12:24:03;100352.91;;;4.63;61.27
26823;BME280;14852;51.910;8.878;2023-01-26T12:26:38;100359.88;;;4.58;61.27
26823;BME280;14852;51.910;8.878;2023-01-26T12:29:34;100361.59;;;4.57;61.57
26823;BME280;14852;51.910;8.878;2023-01-26T12:32:09;100355.66;;;4.52;61.76
26823;BME280;14852;51.910;8.878;2023-01-26T12:34:36;100359.03;;;4.57;61.51
26823;BME280;14852;51.910;8.878;2023-01-26T12:37:33;100352.97;;;4.60;61.64
26823;BME280;14852;51.910;8.878;2023-01-26T12:40:35;100354.69;;;4.61;61.61
26823;BME280;14852;51.910;8.878;2023-01-26T12:44:35;100352.94;;;4.61;61.63
26823;BME280;14852;51.910;8.878;2023-01-26T12:46:32;100346.97;;;4.59;61.42
26823;BME280;14852;51.910;8.878;2023-01-26T12:49:16;100351.28;;;4.59;61.45
26823;BME280;14852;51.910;8.878;2023-01-26T12:51:53;100341.84;;;4.59;61.62
26823;BME280;14852;51.910;8.878;2023-01-26T12:54:55;100345.25;;;4.60;61.63
26823;BME280;14852;51.910;8.878;2023-01-26T12:57:29;100334.19;;;4.55;61.56
26823;BME280;14852;51.910;8.878;2023-01-26T13:00:21;100339.34;;;4.53;61.63
26823;BME280;14852;51.910;8.878;2023-01-26T13:02:55;100335.19;;;4.48;61.69
26823;BME280;14852;51.910;8.878;2023-01-26T13:05:31;100332.63;;;4.46;61.86
26823;BME280;14852;51.910;8.878;2023-01-26T13:10:59;100326.69;;;4.43;62.07
26823;BME280;14852;51.910;8.878;2023-01-26T13:18:55;100328.38;;;4.44;62.11
26823;BME280;14852;51.910;8.878;2023-01-26T13:26:53;100322.34;;;4.46;61.74
26823;BME280;14852;51.910;8.878;2023-01-26T13:35:06;100312.56;;;4.63;61.74
26823;BME280;14852;51.910;8.878;2023-01-26T13:38:01;100311.66;;;4.66;61.42
26823;BME280;14852;51.910;8.878;2023-01-26T13:40:35;100320.25;;;4.66;61.83
26823;BME280;14852;51.910;8.878;2023-01-26T13:43:35;100319.28;;;4.72;61.59
26823;BME280;14852;51.910;8.878;2023-01-26T13:46:25;100321.00;;;4.71;61.67
26823;BME280;14852;51.910;8.878;2023-01-26T13:48:55;100321.00;;;4.71;61.50
26823;BME280;14852;51.910;8.878;2023-01-26T13:51:27;100326.06;;;4.74;61.33
26823;BME280;14852;51.910;8.878;2023-01-26T13:54:06;100320.94;;;4.74;61.41
26823;BME280;14852;51.910;8.878;2023-01-26T13:56:39;100327.81;;;4.74;61.64
26823;BME280;14852;51.910;8.878;2023-01-26T13:59:10;100337.25;;;4.73;61.62
26823;BME280;14852;51.910;8.878;2023-01-26T14:01:49;100328.63;;;4.76;61.53
26823;BME280;14852;51.910;8.878;2023-01-26T14:04:19;100330.31;;;4.77;61.47
26823;BME280;14852;51.910;8.878;2023-01-26T14:07:05;100323.44;;;4.78;61.74
26823;BME280;14852;51.910;8.878;2023-01-26T14:09:49;100328.53;;;4.81;61.67
26823;BME280;14852;51.910;8.878;2023-01-26T14:12:20;100325.97;;;4.81;61.73
26823;BME280;14852;51.910;8.878;2023-01-26T14:15:00;100326.78;;;4.83;61.76
26823;BME280;14852;51.910;8.878;2023-01-26T14:17:36;100336.25;;;4.82;61.72
26823;BME280;14852;51.910;8.878;2023-01-26T14:20:41;100331.09;;;4.82;61.44
26823;BME280;14852;51.910;8.878;2023-01-26T14:25:39;100336.25;;;4.82;61.73
26823;BME280;14852;51.910;8.878;2023-01-26T14:28:14;100336.28;;;4.81;61.83
26823;BME280;14852;51.910;8.878;2023-01-26T14:30:41;100334.63;;;4.77;61.89
26823;BME280;14852;51.910;8.878;2023-01-26T14:33:13;100336.28;;;4.79;61.83
26823;BME280;14852;51.910;8.878;2023-01-26T14:35:41;100335.41;;;4.82;61.94
26823;BME280;14852;51.910;8.878;2023-01-26T14:40:50;100335.25;;;4.88;61.79